Time;durP1;ratioP1;P1;durP2;ratioP2;P2;SDS_P1;SDS_P2;PMS_P1;PMS_P2;Temp;Humidity;BMP_temperature;BMP_pressure;BME280_temperature;BME280_humidity;BME280_pressure;Samples;Min_cycle;Max_cycle;Signal;HPM_P1;HPM_P2
2021/09/17 00:01:17;;;;;;;;;;;;;;;22.09;53.69;100794.19;5052817;28;1896;-47
2021/09/17 00:03:47;;;;;;;;;;;;;;;22.13;53.28;100791.03;5053402;28;1465;-47
2021/09/17 00:06:14;;;;;;;;;;;;;;;22.13;52.93;100782.13;5052818;28;1686;-47
2021/09/17 00:08:47;;;;;;;;;;;;;;;22.18;53.71;100783.34;5052827;28;1787;-47
2021/09/17 00:11:14;;;;;;;;;;;;;;;22.13;53.45;100785.66;5052251;28;1520;-48
2021/09/17 00:13:43;;;;;;;;;;;;;;;22.14;53.18;100779.25;5052812;28;1844;-48
2021/09/17 00:16:10;;;;;;;;;;;;;;;22.03;53.80;100783.03;5053250;28;1267;-47
2021/09/17 00:18:38;;;;;;;;;;;;;;;22.13;53.35;100782.97;5048661;28;1965;-48
2021/09/17 00:21:06;;;;;;;;;;;;;;;22.16;53.81;100790.75;5052470;28;1940;-47
2021/09/17 00:23:35;;;;;;;;;;;;;;;22.04;54.00;100773.09;5052720;28;1917;-47
2021/09/17 00:26:02;;;;;;;;;;;;;;;22.02;54.24;100777.81;5052505;28;1918;-47
2021/09/17 00:28:28;;;;;;;;;;;;;;;22.07;53.99;100767.41;5051894;28;2001;-47
2021/09/17 00:30:55;;;;;;;;;;;;;;;22.16;53.30;100771.88;5053459;28;1963;-48
2021/09/17 00:33:22;;;;;;;;;;;;;;;22.20;53.48;100769.69;5053426;28;1081;-48
2021/09/17 00:35:53;;;;;;;;;;;;;;;22.18;53.25;100767.19;5051901;28;1827;-47
2021/09/17 00:38:22;;;;;;;;;;;;;;;22.22;53.75;100768.56;5053600;28;1905;-47
2021/09/17 00:40:49;;;;;;;;;;;;;;;22.18;53.65;100751.03;5053418;28;1078;-47
2021/09/17 00:43:17;;;;;;;;;;;;;;;22.22;53.39;100765.88;5053065;28;1983;-48
2021/09/17 00:45:44;;;;;;;;;;;;;;;22.28;53.26;100763.56;5052373;28;1886;-47
2021/09/17 00:48:13;;;;;;;;;;;;;;;22.23;53.49;100764.00;5052374;28;1989;-47
2021/09/17 00:50:40;;;;;;;;;;;;;;;22.31;53.74;100749.78;5052705;28;1888;-48
2021/09/17 00:53:12;;;;;;;;;;;;;;;22.27;52.99;100751.13;5052326;28;1994;-48
2021/09/17 00:55:39;;;;;;;;;;;;;;;22.22;53.45;100757.78;5052063;28;1738;-48
2021/09/17 00:58:09;;;;;;;;;;;;;;;22.19;53.12;100752.69;5053361;28;1905;-47
2021/09/17 01:00:36;;;;;;;;;;;;;;;22.27;53.22;100738.47;5052288;28;1845;-48
2021/09/17 01:03:06;;;;;;;;;;;;;;;22.26;53.66;100735.94;5045016;28;1866;-47
2021/09/17 01:05:33;;;;;;;;;;;;;;;22.37;53.45;100743.78;5042288;28;1506;-48
2021/09/17 01:08:03;;;;;;;;;;;;;;;22.30;53.87;100737.31;5052522;28;1699;-48
2021/09/17 01:10:32;;;;;;;;;;;;;;;22.30;53.26;100746.22;5053033;28;1051;-47
2021/09/17 01:13:09;;;;;;;;;;;;;;;22.30;53.78;100731.94;5045492;28;1942;-47
2021/09/17 01:15:39;;;;;;;;;;;;;;;22.18;53.82;100710.63;5049850;28;2018;-48
2021/09/17 01:18:06;;;;;;;;;;;;;;;22.16;54.28;100725.22;5051777;28;1906;-47
2021/09/17 01:20:33;;;;;;;;;;;;;;;22.13;54.27;100723.72;5051817;28;1339;-47
2021/09/17 01:23:06;;;;;;;;;;;;;;;22.14;53.49;100722.69;5051839;28;1509;-48
2021/09/17 01:25:35;;;;;;;;;;;;;;;22.15;53.72;100724.41;5056747;28;1761;-48
2021/09/17 01:28:02;;;;;;;;;;;;;;;22.21;53.78;100717.53;5055415;28;1319;-47
2021/09/17 01:30:31;;;;;;;;;;;;;;;22.26;53.94;100717.91;5055375;28;1809;-48
2021/09/17 01:33:01;;;;;;;;;;;;;;;22.33;53.13;100702.00;5056308;28;1939;-47
2021/09/17 01:35:28;;;;;;;;;;;;;;;22.29;53.46;100708.69;5055679;28;1895;-47
2021/09/17 01:37:55;;;;;;;;;;;;;;;22.31;53.31;100699.44;5053144;28;2000;-47
2021/09/17 01:40:29;;;;;;;;;;;;;;;22.27;53.61;100698.06;5055935;28;1103;-47
2021/09/17 01:42:59;;;;;;;;;;;;;;;22.22;53.39;100700.34;5056465;28;1663;-48
2021/09/17 01:45:26;;;;;;;;;;;;;;;22.16;53.93;100683.00;5055411;28;2161;-47
2021/09/17 01:47:55;;;;;;;;;;;;;;;22.20;54.15;100711.31;5054068;28;1805;-47
2021/09/17 01:50:21;;;;;;;;;;;;;;;22.19;53.89;100687.22;5055426;28;1834;-48
2021/09/17 01:52:48;;;;;;;;;;;;;;;22.18;54.10;100697.16;5055110;28;1715;-48
2021/09/17 01:55:17;;;;;;;;;;;;;;;22.17;54.16;100684.69;5056319;28;1749;-47
2021/09/17 01:57:56;;;;;;;;;;;;;;;22.21;54.21;100688.75;5055122;28;1906;-48
2021/09/17 02:02:54;;;;;;;;;;;;;;;22.13;54.36;100686.00;5025665;28;2742;-46
2021/09/17 02:05:23;;;;;;;;;;;;;;;22.15;54.22;100692.06;5034070;28;1504;-46
2021/09/17 02:07:52;;;;;;;;;;;;;;;22.17;53.95;100689.22;5034263;28;1664;-47
2021/09/17 02:10:20;;;;;;;;;;;;;;;22.17;53.88;100695.44;5026618;28;1031;-47
2021/09/17 02:12:52;;;;;;;;;;;;;;;22.13;53.63;100688.69;5035032;28;1893;-47
2021/09/17 02:15:23;;;;;;;;;;;;;;;22.14;54.13;100693.06;5033431;28;1518;-47
2021/09/17 02:17:53;;;;;;;;;;;;;;;22.16;54.11;100699.16;5033507;28;1911;-47
2021/09/17 02:20:20;;;;;;;;;;;;;;;22.12;54.32;100686.16;5033671;28;1730;-47
2021/09/17 02:23:07;;;;;;;;;;;;;;;22.17;54.04;100692.75;5036911;28;2046;-46
2021/09/17 02:25:34;;;;;;;;;;;;;;;22.19;54.35;100679.97;5032148;28;1109;-48
2021/09/17 02:28:07;;;;;;;;;;;;;;;22.22;54.17;100682.38;5033702;28;1067;-46
2021/09/17 02:30:33;;;;;;;;;;;;;;;22.20;54.12;100680.81;5034495;28;1794;-47
2021/09/17 02:33:00;;;;;;;;;;;;;;;22.19;53.57;100669.19;5033980;28;1977;-46
2021/09/17 02:35:30;;;;;;;;;;;;;;;22.22;54.40;100682.38;5024316;28;1320;-47
2021/09/17 02:38:00;;;;;;;;;;;;;;;22.22;54.40;100660.81;5041315;28;1909;-47
2021/09/17 02:40:28;;;;;;;;;;;;;;;22.12;53.79;100670.81;5034410;28;1019;-46
2021/09/17 02:42:58;;;;;;;;;;;;;;;22.13;54.08;100663.63;5048580;28;1643;-46
2021/09/17 02:45:31;;;;;;;;;;;;;;;22.12;54.33;100673.53;5041502;28;1487;-47
2021/09/17 02:48:00;;;;;;;;;;;;;;;22.12;54.33;100660.06;5036432;28;1811;-47
2021/09/17 02:50:29;;;;;;;;;;;;;;;22.13;54.23;100651.00;5032145;28;1703;-46
2021/09/17 02:52:58;;;;;;;;;;;;;;;22.13;53.59;100664.44;5032734;28;1806;-47
2021/09/17 02:58:08;;;;;;;;;;;;;;;22.12;54.04;100653.84;5035602;28;2633;-47
2021/09/17 03:00:38;;;;;;;;;;;;;;;22.17;54.56;100662.28;5033788;28;1000;-47
2021/09/17 03:03:06;;;;;;;;;;;;;;;22.07;54.08;100654.31;5032575;28;1833;-47
2021/09/17 03:05:34;;;;;;;;;;;;;;;22.13;54.20;100652.84;5032051;28;1738;-46
2021/09/17 03:08:09;;;;;;;;;;;;;;;22.13;54.09;100656.38;5032722;28;1698;-47
2021/09/17 03:10:39;;;;;;;;;;;;;;;22.12;53.72;100661.91;5033751;28;1101;-47
2021/09/17 03:13:10;;;;;;;;;;;;;;;22.15;54.15;100642.75;5033739;28;1535;-47
2021/09/17 03:15:42;;;;;;;;;;;;;;;22.12;54.66;100641.19;5029425;28;1910;-47
2021/09/17 03:18:12;;;;;;;;;;;;;;;22.12;54.37;100635.81;5046903;28;1905;-46
2021/09/17 03:20:39;;;;;;;;;;;;;;;22.15;54.04;100642.75;5033091;28;1910;-47
2021/09/17 03:23:07;;;;;;;;;;;;;;;22.12;53.50;100643.06;5030874;28;1885;-48
2021/09/17 03:25:33;;;;;;;;;;;;;;;22.12;54.68;100651.13;5035877;28;1415;-47
2021/09/17 03:28:01;;;;;;;;;;;;;;;22.14;54.51;100631.13;5028290;28;1907;-47
2021/09/17 03:30:28;;;;;;;;;;;;;;;22.10;54.19;100640.53;5037789;28;1590;-47
2021/09/17 03:33:09;;;;;;;;;;;;;;;22.09;53.98;100638.84;5041149;28;1763;-46
2021/09/17 03:35:38;;;;;;;;;;;;;;;22.18;53.95;100637.03;5025038;28;1849;-47
2021/09/17 03:38:05;;;;;;;;;;;;;;;22.21;53.75;100629.47;5032894;28;1687;-46
2021/09/17 03:40:33;;;;;;;;;;;;;;;22.18;53.93;100632.50;5033163;28;1954;-47
2021/09/17 03:43:00;;;;;;;;;;;;;;;22.12;53.86;100613.44;5032198;28;1736;-47
2021/09/17 03:45:32;;;;;;;;;;;;;;;22.11;53.73;100631.44;5028513;28;1799;-46
2021/09/17 03:48:04;;;;;;;;;;;;;;;22.09;53.96;100617.31;5035243;28;1908;-47
2021/09/17 03:50:34;;;;;;;;;;;;;;;22.06;53.80;100614.91;5049549;28;1424;-47
2021/09/17 03:53:21;;;;;;;;;;;;;;;22.02;54.06;100608.16;5032078;28;1480;-47
2021/09/17 03:55:50;;;;;;;;;;;;;;;22.03;53.54;100608.00;5031826;28;2034;-46
2021/09/17 03:58:20;;;;;;;;;;;;;;;21.97;53.84;100608.66;5031948;28;1902;-47
2021/09/17 04:00:48;;;;;;;;;;;;;;;22.05;54.19;100621.31;5032516;28;1107;-47
2021/09/17 04:03:27;;;;;;;;;;;;;;;21.99;54.67;100616.56;5033228;28;1489;-47
2021/09/17 04:05:58;;;;;;;;;;;;;;;22.04;53.93;100608.84;5031571;28;1711;-46
2021/09/17 04:08:24;;;;;;;;;;;;;;;22.00;54.27;100610.16;5031952;28;1996;-47
2021/09/17 04:10:54;;;;;;;;;;;;;;;22.04;54.50;100611.53;5032357;28;1727;-47
2021/09/17 04:13:22;;;;;;;;;;;;;;;22.08;53.96;100623.69;5031716;28;1881;-46
2021/09/17 04:15:48;;;;;;;;;;;;;;;22.05;54.57;100626.72;5031753;28;1853;-47
2021/09/17 04:18:23;;;;;;;;;;;;;;;22.11;54.24;100630.63;5031956;28;2048;-47
2021/09/17 04:20:53;;;;;;;;;;;;;;;22.09;54.67;100622.69;5024422;28;1770;-47
2021/09/17 04:23:20;;;;;;;;;;;;;;;22.01;53.79;100614.56;5024675;28;1750;-46
2021/09/17 04:25:48;;;;;;;;;;;;;;;21.98;54.10;100625.63;5032686;28;1339;-47
2021/09/17 04:28:15;;;;;;;;;;;;;;;22.03;54.41;100624.16;5036411;28;1901;-47
2021/09/17 04:30:43;;;;;;;;;;;;;;;21.93;54.48;100611.81;5031207;28;1666;-47
2021/09/17 04:33:14;;;;;;;;;;;;;;;21.92;54.72;100637.03;5018601;28;1469;-47
2021/09/17 04:35:49;;;;;;;;;;;;;;;21.93;54.28;100644.13;5024724;28;3454;-47
2021/09/17 04:38:19;;;;;;;;;;;;;;;22.15;54.84;100613.97;5032373;28;1732;-46
2021/09/17 04:40:48;;;;;;;;;;;;;;;21.96;54.41;100619.56;5031553;28;1902;-49
2021/09/17 04:43:18;;;;;;;;;;;;;;;22.12;54.91;100629.59;5023911;28;1714;-46
2021/09/17 04:45:48;;;;;;;;;;;;;;;22.27;54.22;100619.13;5029587;28;1699;-47
2021/09/17 04:48:16;;;;;;;;;;;;;;;22.18;54.68;100618.19;5028025;28;1922;-46
2021/09/17 04:50:50;;;;;;;;;;;;;;;21.88;54.98;100625.75;5028558;28;1725;-47
2021/09/17 04:53:20;;;;;;;;;;;;;;;21.95;55.52;100620.59;5031698;28;1671;-46
2021/09/17 04:55:50;;;;;;;;;;;;;;;22.01;55.13;100625.34;5039920;28;1492;-47
2021/09/17 04:58:20;;;;;;;;;;;;;;;22.07;54.61;100622.00;5043992;28;1960;-46
2021/09/17 05:00:50;;;;;;;;;;;;;;;22.11;54.19;100609.91;5035009;28;1969;-46
2021/09/17 05:03:20;;;;;;;;;;;;;;;22.17;54.86;100611.97;5035349;28;1542;-48
2021/09/17 05:05:50;;;;;;;;;;;;;;;22.22;54.46;100612.34;5030990;28;1589;-47
2021/09/17 05:08:18;;;;;;;;;;;;;;;22.27;53.80;100613.72;5030021;28;1713;-48
2021/09/17 05:10:50;;;;;;;;;;;;;;;22.27;54.37;100602.97;5032665;28;2324;-48
2021/09/17 05:13:19;;;;;;;;;;;;;;;22.33;53.45;100603.16;5033937;28;1778;-47
2021/09/17 05:15:48;;;;;;;;;;;;;;;22.34;54.39;100601.28;5034941;28;1763;-46
2021/09/17 05:18:20;;;;;;;;;;;;;;;22.45;53.81;100609.09;5034702;28;1868;-46
2021/09/17 05:20:52;;;;;;;;;;;;;;;22.33;54.33;100603.16;5034876;28;1977;-47
2021/09/17 05:23:19;;;;;;;;;;;;;;;22.43;54.11;100598.47;5035566;28;1709;-47
2021/09/17 05:25:46;;;;;;;;;;;;;;;22.58;53.34;100604.09;5034167;28;1984;-50
2021/09/17 05:28:15;;;;;;;;;;;;;;;22.56;53.73;100607.94;5042189;28;1863;-47
2021/09/17 05:30:43;;;;;;;;;;;;;;;22.70;53.08;100607.34;5034196;28;1728;-46
2021/09/17 05:33:11;;;;;;;;;;;;;;;22.85;52.99;100594.06;5028700;28;1648;-47
2021/09/17 05:35:38;;;;;;;;;;;;;;;22.98;52.41;100607.06;5027442;28;1661;-47
2021/09/17 05:38:10;;;;;;;;;;;;;;;23.10;52.29;100599.50;5034153;28;1959;-48
2021/09/17 05:40:36;;;;;;;;;;;;;;;23.21;52.36;100601.91;5034725;28;1906;-47
2021/09/17 05:45:47;;;;;;;;;;;;;;;23.43;52.72;100598.53;5029929;28;2355;-47
2021/09/17 05:48:23;;;;;;;;;;;;;;;23.53;53.29;100606.44;5026839;28;1863;-47
2021/09/17 05:50:52;;;;;;;;;;;;;;;23.59;52.95;100584.19;5034283;28;1683;-47
2021/09/17 05:53:22;;;;;;;;;;;;;;;23.65;53.54;100598.84;5033985;28;1599;-46
2021/09/17 05:55:50;;;;;;;;;;;;;;;23.73;53.62;100589.91;5036592;28;1907;-47
2021/09/17 05:58:17;;;;;;;;;;;;;;;23.72;54.37;100582.84;5032606;28;1597;-47
2021/09/17 06:00:45;;;;;;;;;;;;;;;23.77;56.03;100594.81;5034034;28;1981;-48
2021/09/17 06:03:12;;;;;;;;;;;;;;;23.71;56.45;100591.94;5035329;28;1385;-47
2021/09/17 06:05:39;;;;;;;;;;;;;;;23.65;58.53;100593.44;5032712;28;1854;-47
2021/09/17 06:08:06;;;;;;;;;;;;;;;23.67;58.50;100598.69;5031391;28;1634;-47
2021/09/17 06:10:38;;;;;;;;;;;;;;;23.69;59.25;100602.06;5033931;28;1875;-47
2021/09/17 06:13:05;;;;;;;;;;;;;;;23.70;59.08;100596.50;5033034;28;1791;-47
2021/09/17 06:15:33;;;;;;;;;;;;;;;23.66;59.63;100592.44;5029758;28;1707;-47
2021/09/17 06:18:01;;;;;;;;;;;;;;;23.67;60.16;100580.63;5030499;28;1885;-48
2021/09/17 06:20:31;;;;;;;;;;;;;;;23.69;58.67;100584.00;5022823;28;1956;-47
2021/09/17 06:22:57;;;;;;;;;;;;;;;23.68;55.91;100581.50;5024133;28;1752;-47
2021/09/17 06:25:33;;;;;;;;;;;;;;;23.69;55.52;100578.59;5033384;28;1936;-47
2021/09/17 06:28:05;;;;;;;;;;;;;;;23.69;54.02;100600.19;5020867;28;1893;-47
2021/09/17 06:30:33;;;;;;;;;;;;;;;23.68;55.00;100585.03;5031829;28;1862;-47
2021/09/17 06:33:02;;;;;;;;;;;;;;;23.67;53.88;100590.59;5016241;28;1479;-47
2021/09/17 06:35:29;;;;;;;;;;;;;;;23.74;53.87;100581.63;5024653;28;1932;-47
2021/09/17 06:38:08;;;;;;;;;;;;;;;23.81;54.14;100579.13;5033203;28;1935;-46
2021/09/17 06:40:43;;;;;;;;;;;;;;;23.79;53.09;100578.44;5033160;28;1963;-47
2021/09/17 06:43:15;;;;;;;;;;;;;;;23.79;53.35;100586.53;5031461;28;1834;-47
2021/09/17 06:45:44;;;;;;;;;;;;;;;23.78;54.18;100593.81;5034436;28;1962;-47
2021/09/17 06:48:21;;;;;;;;;;;;;;;23.78;54.10;100595.69;5028659;28;1485;-47
2021/09/17 06:50:48;;;;;;;;;;;;;;;23.80;53.86;100586.38;5031414;28;1732;-48
2021/09/17 06:53:18;;;;;;;;;;;;;;;23.77;53.97;100575.03;5031351;28;1877;-47
2021/09/17 06:55:49;;;;;;;;;;;;;;;23.84;54.55;100583.34;5026044;28;1642;-48
2021/09/17 06:58:18;;;;;;;;;;;;;;;23.82;54.17;100578.94;5028344;28;1947;-47
2021/09/17 07:00:48;;;;;;;;;;;;;;;23.80;55.64;100575.59;5033658;28;1981;-47
2021/09/17 07:03:17;;;;;;;;;;;;;;;23.78;55.13;100583.00;5032831;28;1718;-48
2021/09/17 07:05:47;;;;;;;;;;;;;;;23.82;56.80;100578.94;5030382;28;1682;-47
2021/09/17 07:08:18;;;;;;;;;;;;;;;23.79;55.35;100584.69;5030616;28;1735;-47
2021/09/17 07:11:00;;;;;;;;;;;;;;;23.81;55.03;100585.38;5033672;28;1072;-48
2021/09/17 07:13:43;;;;;;;;;;;;;;;23.78;54.23;100588.41;5029659;28;1533;-47
2021/09/17 07:16:14;;;;;;;;;;;;;;;23.80;53.98;100594.47;5030862;28;1404;-48
2021/09/17 07:18:40;;;;;;;;;;;;;;;23.81;55.42;100588.09;5033246;28;1832;-47
2021/09/17 07:21:09;;;;;;;;;;;;;;;23.79;56.26;100584.69;5032808;28;1973;-47
2021/09/17 07:23:37;;;;;;;;;;;;;;;23.74;56.50;100584.34;5033179;28;2201;-47
2021/09/17 07:26:04;;;;;;;;;;;;;;;23.77;56.72;100586.72;5032846;28;1544;-47
2021/09/17 07:28:32;;;;;;;;;;;;;;;23.75;55.22;100577.91;5040816;28;1746;-47
2021/09/17 07:31:00;;;;;;;;;;;;;;;23.78;56.64;100580.31;5032515;28;1432;-47
2021/09/17 07:33:38;;;;;;;;;;;;;;;23.81;56.13;100587.22;5024359;28;1788;-47
2021/09/17 07:36:12;;;;;;;;;;;;;;;23.77;56.50;100559.72;5022467;28;1675;-47
2021/09/17 07:38:38;;;;;;;;;;;;;;;23.77;56.53;100581.31;5019773;28;1722;-47
2021/09/17 07:41:12;;;;;;;;;;;;;;;23.77;55.96;100592.13;5020774;28;1906;-48
2021/09/17 07:43:39;;;;;;;;;;;;;;;23.78;55.79;100577.59;5019937;28;1644;-47
2021/09/17 07:46:06;;;;;;;;;;;;;;;23.80;55.16;100564.78;5024765;28;1765;-47
2021/09/17 07:48:38;;;;;;;;;;;;;;;23.94;54.50;100581.31;5025457;28;1703;-48
2021/09/17 07:51:06;;;;;;;;;;;;;;;23.85;53.76;100564.25;5026951;28;1709;-47
2021/09/17 07:53:33;;;;;;;;;;;;;;;23.86;53.53;100579.47;5032564;28;1446;-47
2021/09/17 07:56:01;;;;;;;;;;;;;;;23.90;53.12;100571.84;5025328;28;1549;-46
2021/09/17 07:58:28;;;;;;;;;;;;;;;23.89;52.81;100572.84;5030006;28;2139;-47
2021/09/17 08:00:59;;;;;;;;;;;;;;;23.85;53.22;100560.72;5043955;28;1989;-46
2021/09/17 08:03:29;;;;;;;;;;;;;;;23.84;53.09;100575.25;5031981;28;1725;-46
2021/09/17 08:06:00;;;;;;;;;;;;;;;23.84;52.90;100562.59;5032356;28;1668;-47
2021/09/17 08:08:27;;;;;;;;;;;;;;;23.88;53.59;100572.03;5015729;28;1533;-47
2021/09/17 08:10:57;;;;;;;;;;;;;;;23.84;53.68;100564.44;5032986;28;1196;-46
2021/09/17 08:13:27;;;;;;;;;;;;;;;23.87;53.05;100569.50;5033047;28;990;-47
2021/09/17 08:15:54;;;;;;;;;;;;;;;23.85;53.03;100555.31;5032311;28;1607;-47
2021/09/17 08:21:08;;;;;;;;;;;;;;;23.81;52.89;100558.38;5019177;28;2529;-46
2021/09/17 08:23:35;;;;;;;;;;;;;;;23.87;53.39;100555.97;5027427;28;1665;-46
2021/09/17 08:26:03;;;;;;;;;;;;;;;23.81;53.82;100554.81;5033188;28;1411;-45
2021/09/17 08:28:30;;;;;;;;;;;;;;;23.89;53.38;100551.25;5031344;28;1561;-47
2021/09/17 08:30:57;;;;;;;;;;;;;;;23.92;53.56;100550.91;5032369;28;1528;-47
2021/09/17 08:33:27;;;;;;;;;;;;;;;23.82;54.03;100554.66;5036897;28;1530;-46
2021/09/17 08:35:55;;;;;;;;;;;;;;;23.87;53.90;100553.28;5036445;28;1622;-47
2021/09/17 08:38:26;;;;;;;;;;;;;;;23.81;54.79;100550.28;5037000;28;2040;-47
2021/09/17 08:40:53;;;;;;;;;;;;;;;23.89;54.43;100551.25;5023832;28;1906;-47
2021/09/17 08:43:32;;;;;;;;;;;;;;;23.89;54.42;100545.84;5036377;28;1825;-46
2021/09/17 08:46:01;;;;;;;;;;;;;;;23.89;54.67;100535.06;5031574;28;1986;-47
2021/09/17 08:48:43;;;;;;;;;;;;;;;23.86;54.80;100540.81;5034244;28;1805;-46
2021/09/17 08:51:12;;;;;;;;;;;;;;;23.89;55.06;100540.44;5036383;28;1573;-46
2021/09/17 08:53:44;;;;;;;;;;;;;;;23.88;54.96;100527.97;5036691;28;1675;-47
2021/09/17 08:56:15;;;;;;;;;;;;;;;23.89;55.30;100541.28;5037490;28;1989;-46
2021/09/17 08:58:44;;;;;;;;;;;;;;;23.89;54.76;100532.34;5035809;28;1840;-46
2021/09/17 09:01:25;;;;;;;;;;;;;;;23.91;55.21;100525.75;5035990;28;1979;-47
2021/09/17 09:03:56;;;;;;;;;;;;;;;23.87;55.23;100529.81;5023470;28;1740;-46
2021/09/17 09:06:24;;;;;;;;;;;;;;;23.87;55.53;100520.88;5033155;28;1943;-47
2021/09/17 09:08:52;;;;;;;;;;;;;;;23.85;55.58;100525.63;5027056;28;1698;-47
2021/09/17 09:11:22;;;;;;;;;;;;;;;23.88;55.24;100522.59;5033842;28;1718;-47
2021/09/17 09:14:02;;;;;;;;;;;;;;;23.87;55.51;100524.41;5036356;28;1770;-47
2021/09/17 09:16:32;;;;;;;;;;;;;;;23.92;55.18;100518.50;5029828;28;1547;-47
2021/09/17 09:19:16;;;;;;;;;;;;;;;23.93;54.90;100530.97;5029808;28;1621;-47
2021/09/17 09:21:43;;;;;;;;;;;;;;;23.92;55.35;100524.75;5035653;28;1910;-46
2021/09/17 09:24:23;;;;;;;;;;;;;;;23.88;56.33;100512.63;5034866;28;1520;-47
2021/09/17 09:27:08;;;;;;;;;;;;;;;23.85;55.91;100517.50;5037208;28;1712;-47
2021/09/17 09:29:56;;;;;;;;;;;;;;;23.89;55.76;100516.16;5036242;28;1634;-47
2021/09/17 09:32:30;;;;;;;;;;;;;;;23.89;55.46;100502.66;5032447;28;1837;-46
2021/09/17 09:35:17;;;;;;;;;;;;;;;23.89;55.57;100491.84;5033241;28;1805;-47
2021/09/17 09:37:45;;;;;;;;;;;;;;;23.90;55.36;100480.03;5030083;28;1774;-47
2021/09/17 09:40:20;;;;;;;;;;;;;;;23.97;55.49;100491.81;5032768;28;1902;-46
2021/09/17 09:42:47;;;;;;;;;;;;;;;23.98;55.98;100480.00;5034017;28;1675;-47
2021/09/17 09:45:18;;;;;;;;;;;;;;;23.97;55.19;100479.16;5034930;28;1932;-47
2021/09/17 09:47:47;;;;;;;;;;;;;;;23.97;55.78;100475.59;5023910;28;1726;-47
2021/09/17 09:50:22;;;;;;;;;;;;;;;23.95;55.33;100480.34;5035241;28;1397;-47
2021/09/17 09:52:48;;;;;;;;;;;;;;;24.01;55.58;100479.63;5026585;28;1705;-46
2021/09/17 09:55:19;;;;;;;;;;;;;;;24.04;55.13;100473.06;5028329;28;1848;-47
2021/09/17 09:57:45;;;;;;;;;;;;;;;24.05;55.74;100470.16;5025404;28;1864;-46
2021/09/17 10:00:15;;;;;;;;;;;;;;;24.02;55.16;100471.34;5035266;28;1974;-46
2021/09/17 10:02:42;;;;;;;;;;;;;;;24.00;54.91;100451.78;5027908;28;1961;-47
2021/09/17 10:05:09;;;;;;;;;;;;;;;23.99;54.98;100458.22;5022747;28;1739;-47
2021/09/17 10:07:38;;;;;;;;;;;;;;;23.98;54.96;100453.00;5025872;28;1305;-47
2021/09/17 10:10:08;;;;;;;;;;;;;;;24.02;55.22;100448.91;5030963;28;1946;-47
2021/09/17 10:12:38;;;;;;;;;;;;;;;24.01;54.70;100431.00;5027405;28;1806;-47
2021/09/17 10:15:06;;;;;;;;;;;;;;;24.04;54.78;100435.25;5027478;28;1624;-47
2021/09/17 10:17:38;;;;;;;;;;;;;;;24.01;55.48;100425.63;5023550;28;1843;-48
2021/09/17 10:20:09;;;;;;;;;;;;;;;24.14;55.00;100419.66;5031506;28;1755;-46
2021/09/17 10:22:52;;;;;;;;;;;;;;;24.05;54.61;100410.72;5034939;28;1975;-45
2021/09/17 10:25:20;;;;;;;;;;;;;;;24.02;55.33;100408.41;5034428;28;1809;-46
2021/09/17 10:28:15;;;;;;;;;;;;;;;24.08;54.93;100418.50;5028762;28;1590;-47
2021/09/17 10:30:44;;;;;;;;;;;;;;;24.05;55.54;100420.69;5021167;28;1564;-47
2021/09/17 10:33:22;;;;;;;;;;;;;;;24.05;55.05;100397.22;5026580;28;1696;-47
2021/09/17 10:35:51;;;;;;;;;;;;;;;24.03;55.68;100412.78;5024552;28;2123;-47
2021/09/17 10:38:33;;;;;;;;;;;;;;;24.01;55.87;100409.41;5024013;28;1347;-47
2021/09/17 10:41:04;;;;;;;;;;;;;;;24.02;56.38;100406.53;5014922;28;1910;-47
2021/09/17 10:44:09;;;;;;;;;;;;;;;24.01;56.81;100404.88;5017070;28;1590;-47
2021/09/17 10:46:39;;;;;;;;;;;;;;;24.02;56.50;100416.50;5028555;28;1795;-47
2021/09/17 10:49:08;;;;;;;;;;;;;;;23.98;56.18;100407.06;5035167;28;1080;-47
2021/09/17 10:51:38;;;;;;;;;;;;;;;23.99;56.29;100401.50;5035212;28;1874;-47
2021/09/17 10:54:19;;;;;;;;;;;;;;;23.97;56.13;100395.44;5034770;28;2022;-47
2021/09/17 10:57:07;;;;;;;;;;;;;;;24.01;55.82;100414.81;5031017;28;1694;-47
2021/09/17 10:59:47;;;;;;;;;;;;;;;23.97;56.37;100402.69;4971428;28;2020;-47
2021/09/17 11:02:15;;;;;;;;;;;;;;;23.95;55.79;100402.00;5033018;28;1909;-47
2021/09/17 11:04:43;;;;;;;;;;;;;;;23.94;56.18;100401.19;5034285;28;1682;-47
2021/09/17 11:07:32;;;;;;;;;;;;;;;23.96;56.30;100390.22;5034053;28;1771;-48
2021/09/17 11:10:03;;;;;;;;;;;;;;;23.87;51.07;100400.19;5028538;28;1701;-47
2021/09/17 11:12:31;;;;;;;;;;;;;;;23.89;51.69;100395.47;5025602;28;1667;-47
2021/09/17 11:15:08;;;;;;;;;;;;;;;24.02;53.95;100384.94;5033549;28;1758;-48
2021/09/17 11:17:44;;;;;;;;;;;;;;;24.05;52.96;100382.88;5033740;28;1766;-48
2021/09/17 11:20:13;;;;;;;;;;;;;;;24.00;52.69;100378.88;5023877;28;1433;-48
2021/09/17 11:22:55;;;;;;;;;;;;;;;23.98;53.24;100371.97;5033512;28;1975;-48
2021/09/17 11:25:39;;;;;;;;;;;;;;;23.98;53.54;100374.66;5021388;28;1841;-48
2021/09/17 11:28:10;;;;;;;;;;;;;;;24.08;54.05;100360.94;5026133;28;1678;-48
2021/09/17 11:30:41;;;;;;;;;;;;;;;24.10;53.92;100365.13;5020813;28;1631;-48
2021/09/17 11:33:20;;;;;;;;;;;;;;;24.07;53.46;100362.78;5034053;28;1170;-48
2021/09/17 11:35:47;;;;;;;;;;;;;;;24.16;53.17;100356.31;5034795;28;2155;-48
2021/09/17 11:38:15;;;;;;;;;;;;;;;24.10;51.63;100346.22;5033286;28;1667;-48
2021/09/17 11:40:52;;;;;;;;;;;;;;;24.16;51.61;100350.91;5031807;28;1906;-48
2021/09/17 11:43:19;;;;;;;;;;;;;;;24.27;51.99;100360.44;5030111;28;2057;-48
2021/09/17 11:45:54;;;;;;;;;;;;;;;24.30;52.91;100367.38;5029057;28;1908;-48
2021/09/17 11:48:22;;;;;;;;;;;;;;;24.25;51.44;100354.38;5021163;28;1782;-48
2021/09/17 11:50:52;;;;;;;;;;;;;;;24.18;51.15;100339.91;5033949;28;1521;-48
2021/09/17 11:53:33;;;;;;;;;;;;;;;24.16;51.86;100353.59;5029421;28;1932;-48
2021/09/17 11:56:07;;;;;;;;;;;;;;;24.14;50.90;100350.25;5023328;28;1718;-48
2021/09/17 11:58:43;;;;;;;;;;;;;;;24.14;50.90;100341.31;5030520;28;1948;-49
2021/09/17 12:01:22;;;;;;;;;;;;;;;24.16;51.70;100344.66;5028637;28;1906;-49
2021/09/17 12:03:59;;;;;;;;;;;;;;;24.20;51.19;100349.53;5029481;28;1682;-48
2021/09/17 12:06:29;;;;;;;;;;;;;;;24.19;49.73;100337.06;5030250;28;1888;-48
2021/09/17 12:08:57;;;;;;;;;;;;;;;24.18;49.08;100332.66;5030138;28;1665;-47
2021/09/17 12:11:25;;;;;;;;;;;;;;;24.11;50.10;100318.16;5016831;28;2012;-48
2021/09/17 12:13:58;;;;;;;;;;;;;;;24.14;49.95;100320.53;5032298;28;1708;-48
2021/09/17 12:16:28;;;;;;;;;;;;;;;24.14;50.57;100325.09;5023692;28;1525;-48
2021/09/17 12:19:01;;;;;;;;;;;;;;;24.10;50.12;100291.38;5030577;28;1800;-48
2021/09/17 12:21:35;;;;;;;;;;;;;;;24.12;50.47;100309.06;5032153;28;1972;-48
2021/09/17 12:24:17;;;;;;;;;;;;;;;24.12;50.33;100295.56;5032154;28;1827;-48
2021/09/17 12:26:53;;;;;;;;;;;;;;;24.12;50.38;100300.13;5027333;28;1558;-48
2021/09/17 12:29:22;;;;;;;;;;;;;;;24.09;50.12;100293.19;5030969;28;1999;-48
2021/09/17 12:31:52;;;;;;;;;;;;;;;24.08;49.41;100291.53;5029745;28;1867;-48
2021/09/17 12:34:21;;;;;;;;;;;;;;;24.09;49.42;100282.41;5016197;28;1800;-48
2021/09/17 12:36:50;;;;;;;;;;;;;;;24.09;49.90;100298.59;5030527;28;1988;-49
2021/09/17 12:39:20;;;;;;;;;;;;;;;24.11;49.84;100274.94;5025990;28;1641;-48
2021/09/17 12:41:50;;;;;;;;;;;;;;;24.12;50.27;100282.03;5019734;28;1937;-48
2021/09/17 12:44:21;;;;;;;;;;;;;;;24.11;50.56;100279.53;5033182;28;2025;-48
2021/09/17 12:46:53;;;;;;;;;;;;;;;24.11;50.51;100271.41;5029280;28;1683;-47
2021/09/17 12:49:27;;;;;;;;;;;;;;;24.10;50.13;100262.47;5020478;28;1072;-47
2021/09/17 12:51:56;;;;;;;;;;;;;;;24.12;50.79;100254.19;5032241;28;1579;-48
2021/09/17 12:54:23;;;;;;;;;;;;;;;24.09;49.95;100249.97;5028787;28;1664;-48
2021/09/17 12:56:52;;;;;;;;;;;;;;;24.10;50.35;100259.78;5032165;28;1904;-47
2021/09/17 12:59:21;;;;;;;;;;;;;;;24.11;50.69;100258.75;5033607;28;1676;-47
2021/09/17 13:01:52;;;;;;;;;;;;;;;24.10;50.78;100254.38;5031983;28;1902;-48
2021/09/17 13:04:22;;;;;;;;;;;;;;;24.13;51.18;100248.63;5015755;28;1351;-48
2021/09/17 13:06:48;;;;;;;;;;;;;;;24.16;50.69;100250.94;5039323;28;1750;-48
2021/09/17 13:09:15;;;;;;;;;;;;;;;24.16;50.10;100258.22;5032661;28;1020;-48
2021/09/17 13:11:45;;;;;;;;;;;;;;;24.17;50.57;100260.75;5032277;28;1784;-48
2021/09/17 13:14:15;;;;;;;;;;;;;;;24.20;51.52;100233.34;5031359;28;1624;-47
2021/09/17 13:16:43;;;;;;;;;;;;;;;24.21;51.51;100243.16;5032238;28;1665;-46